sensor_id;sensor_type;location;lat;lon;timestamp;temperature;humidity
20534;DHT22;12929;56.822;26.056;2022-08-21T00:01:53;18.50;99.90
20534;DHT22;12929;56.822;26.056;2022-08-21T00:04:21;18.60;99.90
20534;DHT22;12929;56.822;26.056;2022-08-21T00:06:57;18.60;99.90
20534;DHT22;12929;56.822;26.056;2022-08-21T00:09:26;18.60;99.90
20534;DHT22;12929;56.822;26.056;2022-08-21T00:11:53;18.60;99.90
20534;DHT22;12929;56.822;26.056;2022-08-21T00:14:21;18.50;99.90
20534;DHT22;12929;56.822;26.056;2022-08-21T00:16:49;18.50;99.90
20534;DHT22;12929;56.822;26.056;2022-08-21T00:19:17;18.50;99.90
20534;DHT22;12929;56.822;26.056;2022-08-21T00:21:47;18.50;99.90
20534;DHT22;12929;56.822;26.056;2022-08-21T00:24:15;18.40;99.90
20534;DHT22;12929;56.822;26.056;2022-08-21T00:26:43;18.40;99.90
20534;DHT22;12929;56.822;26.056;2022-08-21T00:29:11;18.50;99.90
20534;DHT22;12929;56.822;26.056;2022-08-21T00:31:41;18.50;99.90
20534;DHT22;12929;56.822;26.056;2022-08-21T00:34:10;18.50;99.90
20534;DHT22;12929;56.822;26.056;2022-08-21T00:36:39;18.40;99.90
20534;DHT22;12929;56.822;26.056;2022-08-21T00:39:08;18.40;99.90
20534;DHT22;12929;56.822;26.056;2022-08-21T00:41:37;18.40;99.90
20534;DHT22;12929;56.822;26.056;2022-08-21T00:44:09;18.40;99.90
20534;DHT22;12929;56.822;26.056;2022-08-21T00:46:38;18.40;99.90
20534;DHT22;12929;56.822;26.056;2022-08-21T00:49:07;18.40;99.90
20534;DHT22;12929;56.822;26.056;2022-08-21T00:51:41;18.30;99.90
20534;DHT22;12929;56.822;26.056;2022-08-21T00:54:10;18.40;99.90
20534;DHT22;12929;56.822;26.056;2022-08-21T00:56:50;18.30;99.90
20534;DHT22;12929;56.822;26.056;2022-08-21T00:59:19;18.30;99.90
20534;DHT22;12929;56.822;26.056;2022-08-21T01:01:48;18.30;99.90
20534;DHT22;12929;56.822;26.056;2022-08-21T01:04:16;18.30;99.90
20534;DHT22;12929;56.822;26.056;2022-08-21T01:06:44;18.30;99.90
20534;DHT22;12929;56.822;26.056;2022-08-21T01:09:13;18.30;99.90
20534;DHT22;12929;56.822;26.056;2022-08-21T01:11:41;18.20;99.90
20534;DHT22;12929;56.822;26.056;2022-08-21T01:14:13;18.20;99.90
20534;DHT22;12929;56.822;26.056;2022-08-21T01:16:45;18.20;99.90
20534;DHT22;12929;56.822;26.056;2022-08-21T01:19:13;18.10;99.90
20534;DHT22;12929;56.822;26.056;2022-08-21T01:21:42;18.10;99.90
20534;DHT22;12929;56.822;26.056;2022-08-21T01:24:11;18.10;99.90
20534;DHT22;12929;56.822;26.056;2022-08-21T01:26:40;18.10;99.90
20534;DHT22;12929;56.822;26.056;2022-08-21T01:32:02;18.10;99.90
20534;DHT22;12929;56.822;26.056;2022-08-21T01:34:31;18.10;99.90
20534;DHT22;12929;56.822;26.056;2022-08-21T01:36:59;18.10;99.90
20534;DHT22;12929;56.822;26.056;2022-08-21T01:39:27;18.00;99.90
20534;DHT22;12929;56.822;26.056;2022-08-21T01:41:55;18.10;99.90
20534;DHT22;12929;56.822;26.056;2022-08-21T01:44:23;18.10;99.90
20534;DHT22;12929;56.822;26.056;2022-08-21T01:46:52;18.10;99.90
20534;DHT22;12929;56.822;26.056;2022-08-21T01:49:20;18.10;99.90
20534;DHT22;12929;56.822;26.056;2022-08-21T01:51:48;18.00;99.90
20534;DHT22;12929;56.822;26.056;2022-08-21T01:54:15;18.00;99.90
20534;DHT22;12929;56.822;26.056;2022-08-21T01:56:46;18.10;99.90
20534;DHT22;12929;56.822;26.056;2022-08-21T01:59:15;18.00;99.90
20534;DHT22;12929;56.822;26.056;2022-08-21T02:01:42;18.00;99.90
20534;DHT22;12929;56.822;26.056;2022-08-21T02:04:10;18.00;99.90
20534;DHT22;12929;56.822;26.056;2022-08-21T02:06:38;18.00;99.90
20534;DHT22;12929;56.822;26.056;2022-08-21T02:09:08;17.90;99.90
20534;DHT22;12929;56.822;26.056;2022-08-21T02:11:37;17.90;99.90
20534;DHT22;12929;56.822;26.056;2022-08-21T02:14:12;17.80;99.90
20534;DHT22;12929;56.822;26.056;2022-08-21T02:16:58;17.80;99.90
20534;DHT22;12929;56.822;26.056;2022-08-21T02:19:36;17.90;99.90
20534;DHT22;12929;56.822;26.056;2022-08-21T02:22:10;18.00;99.90
20534;DHT22;12929;56.822;26.056;2022-08-21T02:24:39;17.90;99.90
20534;DHT22;12929;56.822;26.056;2022-08-21T02:27:25;17.90;99.90
20534;DHT22;12929;56.822;26.056;2022-08-21T02:29:57;17.90;99.90
20534;DHT22;12929;56.822;26.056;2022-08-21T02:32:25;17.90;99.90
20534;DHT22;12929;56.822;26.056;2022-08-21T02:34:53;17.90;99.90
20534;DHT22;12929;56.822;26.056;2022-08-21T02:37:22;17.90;99.90
20534;DHT22;12929;56.822;26.056;2022-08-21T02:39:50;17.90;99.90
20534;DHT22;12929;56.822;26.056;2022-08-21T02:42:18;17.80;99.90
20534;DHT22;12929;56.822;26.056;2022-08-21T02:44:46;17.80;99.90
20534;DHT22;12929;56.822;26.056;2022-08-21T02:47:14;17.80;99.90
20534;DHT22;12929;56.822;26.056;2022-08-21T02:49:41;17.80;99.90
20534;DHT22;12929;56.822;26.056;2022-08-21T02:52:09;17.70;99.90
20534;DHT22;12929;56.822;26.056;2022-08-21T02:54:39;17.70;99.90
20534;DHT22;12929;56.822;26.056;2022-08-21T02:57:07;17.80;99.90
20534;DHT22;12929;56.822;26.056;2022-08-21T02:59:35;17.70;99.90
20534;DHT22;12929;56.822;26.056;2022-08-21T03:02:03;17.70;99.90
20534;DHT22;12929;56.822;26.056;2022-08-21T03:04:31;17.60;99.90
20534;DHT22;12929;56.822;26.056;2022-08-21T03:06:59;17.70;99.90
20534;DHT22;12929;56.822;26.056;2022-08-21T03:09:27;17.60;99.90
20534;DHT22;12929;56.822;26.056;2022-08-21T03:11:55;17.70;99.90
20534;DHT22;12929;56.822;26.056;2022-08-21T03:14:23;17.60;99.90
20534;DHT22;12929;56.822;26.056;2022-08-21T03:16:51;17.60;99.90
20534;DHT22;12929;56.822;26.056;2022-08-21T03:19:19;17.60;99.90
20534;DHT22;12929;56.822;26.056;2022-08-21T03:21:48;17.60;99.90
20534;DHT22;12929;56.822;26.056;2022-08-21T03:24:16;17.50;99.90
20534;DHT22;12929;56.822;26.056;2022-08-21T03:26:47;17.40;99.90
20534;DHT22;12929;56.822;26.056;2022-08-21T03:29:16;17.40;99.90
20534;DHT22;12929;56.822;26.056;2022-08-21T03:31:44;17.40;99.90
20534;DHT22;12929;56.822;26.056;2022-08-21T03:34:11;17.50;99.90
20534;DHT22;12929;56.822;26.056;2022-08-21T03:36:39;17.40;99.90
20534;DHT22;12929;56.822;26.056;2022-08-21T03:39:07;17.40;99.90
20534;DHT22;12929;56.822;26.056;2022-08-21T03:41:35;17.50;99.90
20534;DHT22;12929;56.822;26.056;2022-08-21T03:44:03;17.50;99.90
20534;DHT22;12929;56.822;26.056;2022-08-21T03:46:31;17.40;99.90
20534;DHT22;12929;56.822;26.056;2022-08-21T03:48:58;17.40;99.90
20534;DHT22;12929;56.822;26.056;2022-08-21T03:51:26;17.40;99.90
20534;DHT22;12929;56.822;26.056;2022-08-21T03:53:54;17.40;99.90
20534;DHT22;12929;56.822;26.056;2022-08-21T03:56:22;17.30;99.90
20534;DHT22;12929;56.822;26.056;2022-08-21T03:58:50;17.20;99.90
20534;DHT22;12929;56.822;26.056;2022-08-21T04:01:18;17.30;99.90
20534;DHT22;12929;56.822;26.056;2022-08-21T04:03:46;17.30;99.90
20534;DHT22;12929;56.822;26.056;2022-08-21T04:06:14;17.30;99.90
20534;DHT22;12929;56.822;26.056;2022-08-21T04:08:41;17.30;99.90
20534;DHT22;12929;56.822;26.056;2022-08-21T04:11:10;17.30;99.90
20534;DHT22;12929;56.822;26.056;2022-08-21T04:13:38;17.40;99.90
20534;DHT22;12929;56.822;26.056;2022-08-21T04:16:11;17.10;99.90
20534;DHT22;12929;56.822;26.056;2022-08-21T04:18:39;17.10;99.90
20534;DHT22;12929;56.822;26.056;2022-08-21T04:21:09;17.30;99.90
20534;DHT22;12929;56.822;26.056;2022-08-21T04:23:39;17.30;99.90
20534;DHT22;12929;56.822;26.056;2022-08-21T04:26:07;17.10;99.90
20534;DHT22;12929;56.822;26.056;2022-08-21T04:28:35;17.10;99.90
20534;DHT22;12929;56.822;26.056;2022-08-21T04:31:03;17.10;99.90
20534;DHT22;12929;56.822;26.056;2022-08-21T04:33:31;17.20;99.90
20534;DHT22;12929;56.822;26.056;2022-08-21T04:35:59;17.20;99.90
20534;DHT22;12929;56.822;26.056;2022-08-21T04:38:27;17.20;99.90
20534;DHT22;12929;56.822;26.056;2022-08-21T04:41:04;17.20;99.90
20534;DHT22;12929;56.822;26.056;2022-08-21T04:43:34;17.10;99.90
20534;DHT22;12929;56.822;26.056;2022-08-21T04:46:02;17.10;99.90
20534;DHT22;12929;56.822;26.056;2022-08-21T04:48:30;17.20;99.90
20534;DHT22;12929;56.822;26.056;2022-08-21T04:56:09;17.10;99.90
20534;DHT22;12929;56.822;26.056;2022-08-21T04:58:40;17.10;99.90
20534;DHT22;12929;56.822;26.056;2022-08-21T05:01:14;17.10;99.90
20534;DHT22;12929;56.822;26.056;2022-08-21T05:03:44;17.00;99.90
20534;DHT22;12929;56.822;26.056;2022-08-21T05:06:14;17.10;99.90
20534;DHT22;12929;56.822;26.056;2022-08-21T05:08:45;17.10;99.90
20534;DHT22;12929;56.822;26.056;2022-08-21T05:11:13;17.10;99.90
20534;DHT22;12929;56.822;26.056;2022-08-21T05:13:40;17.10;99.90
20534;DHT22;12929;56.822;26.056;2022-08-21T05:16:08;17.00;99.90
20534;DHT22;12929;56.822;26.056;2022-08-21T05:18:36;17.00;99.90
20534;DHT22;12929;56.822;26.056;2022-08-21T05:21:04;17.00;99.90
20534;DHT22;12929;56.822;26.056;2022-08-21T05:23:32;17.10;99.90
20534;DHT22;12929;56.822;26.056;2022-08-21T05:26:00;17.20;99.90
20534;DHT22;12929;56.822;26.056;2022-08-21T05:28:28;17.30;99.90
20534;DHT22;12929;56.822;26.056;2022-08-21T05:30:56;17.10;99.90
20534;DHT22;12929;56.822;26.056;2022-08-21T05:33:24;17.10;99.90
20534;DHT22;12929;56.822;26.056;2022-08-21T05:35:53;17.10;99.90
20534;DHT22;12929;56.822;26.056;2022-08-21T05:38:24;17.10;99.90
20534;DHT22;12929;56.822;26.056;2022-08-21T05:40:52;17.20;99.90
20534;DHT22;12929;56.822;26.056;2022-08-21T05:43:20;17.20;99.90
20534;DHT22;12929;56.822;26.056;2022-08-21T05:45:48;17.30;99.90
20534;DHT22;12929;56.822;26.056;2022-08-21T05:48:21;17.20;99.90
20534;DHT22;12929;56.822;26.056;2022-08-21T05:50:51;17.10;99.90
20534;DHT22;12929;56.822;26.056;2022-08-21T05:53:21;17.20;99.90
20534;DHT22;12929;56.822;26.056;2022-08-21T05:55:50;17.20;99.90
20534;DHT22;12929;56.822;26.056;2022-08-21T05:58:20;17.20;99.90
20534;DHT22;12929;56.822;26.056;2022-08-21T06:00:51;17.20;99.90
20534;DHT22;12929;56.822;26.056;2022-08-21T06:03:26;17.30;99.90
20534;DHT22;12929;56.822;26.056;2022-08-21T06:05:55;17.20;99.90
20534;DHT22;12929;56.822;26.056;2022-08-21T06:08:24;17.20;99.90
20534;DHT22;12929;56.822;26.056;2022-08-21T06:10:53;17.30;99.90
20534;DHT22;12929;56.822;26.056;2022-08-21T06:13:22;17.30;99.90
20534;DHT22;12929;56.822;26.056;2022-08-21T06:16:12;17.30;99.90
20534;DHT22;12929;56.822;26.056;2022-08-21T06:18:43;17.30;99.90
20534;DHT22;12929;56.822;26.056;2022-08-21T06:21:12;17.20;99.90
20534;DHT22;12929;56.822;26.056;2022-08-21T06:23:41;17.20;99.90
20534;DHT22;12929;56.822;26.056;2022-08-21T06:26:11;17.30;99.90
20534;DHT22;12929;56.822;26.056;2022-08-21T06:28:41;17.30;99.90
20534;DHT22;12929;56.822;26.056;2022-08-21T06:31:17;17.40;99.90
20534;DHT22;12929;56.822;26.056;2022-08-21T06:33:46;17.40;99.90
20534;DHT22;12929;56.822;26.056;2022-08-21T06:36:14;17.40;99.90
20534;DHT22;12929;56.822;26.056;2022-08-21T06:38:42;17.50;99.90
20534;DHT22;12929;56.822;26.056;2022-08-21T06:41:18;17.50;99.90
20534;DHT22;12929;56.822;26.056;2022-08-21T06:43:50;17.50;99.90
20534;DHT22;12929;56.822;26.056;2022-08-21T06:46:18;17.50;99.90
20534;DHT22;12929;56.822;26.056;2022-08-21T06:48:46;17.50;99.90
20534;DHT22;12929;56.822;26.056;2022-08-21T06:51:14;17.50;99.90
20534;DHT22;12929;56.822;26.056;2022-08-21T06:53:42;17.50;99.90
20534;DHT22;12929;56.822;26.056;2022-08-21T06:56:09;17.50;99.90
20534;DHT22;12929;56.822;26.056;2022-08-21T06:58:38;17.50;99.90
20534;DHT22;12929;56.822;26.056;2022-08-21T07:01:06;17.50;99.90
20534;DHT22;12929;56.822;26.056;2022-08-21T07:03:36;17.50;99.90
20534;DHT22;12929;56.822;26.056;2022-08-21T07:06:07;17.60;99.90
20534;DHT22;12929;56.822;26.056;2022-08-21T07:08:36;17.60;99.90
20534;DHT22;12929;56.822;26.056;2022-08-21T07:11:13;17.60;99.90
20534;DHT22;12929;56.822;26.056;2022-08-21T07:13:42;17.60;99.90
20534;DHT22;12929;56.822;26.056;2022-08-21T07:16:09;17.60;99.90
20534;DHT22;12929;56.822;26.056;2022-08-21T07:18:37;17.60;99.90
20534;DHT22;12929;56.822;26.056;2022-08-21T07:21:06;17.50;99.90
20534;DHT22;12929;56.822;26.056;2022-08-21T07:23:41;17.60;99.90
20534;DHT22;12929;56.822;26.056;2022-08-21T07:26:10;17.60;99.90
20534;DHT22;12929;56.822;26.056;2022-08-21T07:28:38;17.60;99.90
20534;DHT22;12929;56.822;26.056;2022-08-21T07:31:08;17.70;99.90
20534;DHT22;12929;56.822;26.056;2022-08-21T07:33:36;17.70;99.90
20534;DHT22;12929;56.822;26.056;2022-08-21T07:36:04;17.80;99.90
20534;DHT22;12929;56.822;26.056;2022-08-21T07:38:33;17.80;99.90
20534;DHT22;12929;56.822;26.056;2022-08-21T07:41:02;17.90;99.90
20534;DHT22;12929;56.822;26.056;2022-08-21T07:43:30;17.90;99.90
20534;DHT22;12929;56.822;26.056;2022-08-21T07:45:58;17.90;99.90
20534;DHT22;12929;56.822;26.056;2022-08-21T07:48:25;17.90;99.90
20534;DHT22;12929;56.822;26.056;2022-08-21T07:50:53;17.80;99.90
20534;DHT22;12929;56.822;26.056;2022-08-21T07:53:22;17.80;99.90
20534;DHT22;12929;56.822;26.056;2022-08-21T07:55:50;17.80;99.90
20534;DHT22;12929;56.822;26.056;2022-08-21T07:58:18;17.80;99.90
20534;DHT22;12929;56.822;26.056;2022-08-21T08:00:46;17.80;99.90
20534;DHT22;12929;56.822;26.056;2022-08-21T08:03:13;17.80;99.90
20534;DHT22;12929;56.822;26.056;2022-08-21T08:05:54;17.80;99.90
20534;DHT22;12929;56.822;26.056;2022-08-21T08:08:22;17.90;99.90
20534;DHT22;12929;56.822;26.056;2022-08-21T08:10:50;18.00;99.90
20534;DHT22;12929;56.822;26.056;2022-08-21T08:13:18;18.10;99.90
20534;DHT22;12929;56.822;26.056;2022-08-21T08:15:46;18.20;99.90
20534;DHT22;12929;56.822;26.056;2022-08-21T08:18:14;18.20;99.90
20534;DHT22;12929;56.822;26.056;2022-08-21T08:20:42;18.30;99.90
20534;DHT22;12929;56.822;26.056;2022-08-21T08:23:11;18.40;99.90
20534;DHT22;12929;56.822;26.056;2022-08-21T08:25:39;18.50;99.90
20534;DHT22;12929;56.822;26.056;2022-08-21T08:28:07;18.60;99.90
20534;DHT22;12929;56.822;26.056;2022-08-21T08:30:45;18.60;99.90
20534;DHT22;12929;56.822;26.056;2022-08-21T08:33:14;18.70;99.90
20534;DHT22;12929;56.822;26.056;2022-08-21T08:35:45;18.80;99.90
20534;DHT22;12929;56.822;26.056;2022-08-21T08:38:16;18.90;99.90
20534;DHT22;12929;56.822;26.056;2022-08-21T08:43:42;19.00;99.90
20534;DHT22;12929;56.822;26.056;2022-08-21T08:46:14;19.00;99.90
20534;DHT22;12929;56.822;26.056;2022-08-21T08:52:05;18.90;99.90
20534;DHT22;12929;56.822;26.056;2022-08-21T08:54:39;19.00;99.90
20534;DHT22;12929;56.822;26.056;2022-08-21T08:57:10;19.20;99.90
20534;DHT22;12929;56.822;26.056;2022-08-21T08:59:48;19.20;99.90
20534;DHT22;12929;56.822;26.056;2022-08-21T09:02:19;19.20;99.90
20534;DHT22;12929;56.822;26.056;2022-08-21T09:04:49;19.10;99.90
20534;DHT22;12929;56.822;26.056;2022-08-21T09:07:46;19.10;99.90
20534;DHT22;12929;56.822;26.056;2022-08-21T09:10:32;19.20;99.90
20534;DHT22;12929;56.822;26.056;2022-08-21T09:15:54;19.20;99.90
20534;DHT22;12929;56.822;26.056;2022-08-21T09:18:43;19.40;99.90
20534;DHT22;12929;56.822;26.056;2022-08-21T09:29:40;19.60;99.90
20534;DHT22;12929;56.822;26.056;2022-08-21T09:32:27;19.50;99.90
20534;DHT22;12929;56.822;26.056;2022-08-21T09:37:56;19.60;99.90
20534;DHT22;12929;56.822;26.056;2022-08-21T09:40:39;19.60;99.90
20534;DHT22;12929;56.822;26.056;2022-08-21T09:45:43;19.50;99.90
20534;DHT22;12929;56.822;26.056;2022-08-21T09:48:21;19.60;99.90
20534;DHT22;12929;56.822;26.056;2022-08-21T09:50:53;19.70;99.90
20534;DHT22;12929;56.822;26.056;2022-08-21T09:53:32;19.80;99.90
20534;DHT22;12929;56.822;26.056;2022-08-21T09:56:05;19.90;99.90
20534;DHT22;12929;56.822;26.056;2022-08-21T09:59:17;19.90;99.90
20534;DHT22;12929;56.822;26.056;2022-08-21T10:01:49;20.00;99.90
20534;DHT22;12929;56.822;26.056;2022-08-21T10:04:38;20.00;99.90
20534;DHT22;12929;56.822;26.056;2022-08-21T10:07:11;20.00;99.90
20534;DHT22;12929;56.822;26.056;2022-08-21T10:09:41;19.90;99.90
20534;DHT22;12929;56.822;26.056;2022-08-21T10:12:21;19.90;99.90
20534;DHT22;12929;56.822;26.056;2022-08-21T10:15:05;19.90;99.90
20534;DHT22;12929;56.822;26.056;2022-08-21T10:20:38;19.90;99.90
20534;DHT22;12929;56.822;26.056;2022-08-21T10:29:17;20.20;99.90
20534;DHT22;12929;56.822;26.056;2022-08-21T10:35:12;20.60;99.90
20534;DHT22;12929;56.822;26.056;2022-08-21T10:43:35;20.60;99.90
20534;DHT22;12929;56.822;26.056;2022-08-21T10:46:15;20.60;99.90
20534;DHT22;12929;56.822;26.056;2022-08-21T10:48:54;20.70;99.90
20534;DHT22;12929;56.822;26.056;2022-08-21T10:51:48;20.70;99.90
20534;DHT22;12929;56.822;26.056;2022-08-21T10:57:42;21.20;99.90
20534;DHT22;12929;56.822;26.056;2022-08-21T11:00:19;21.50;99.90
20534;DHT22;12929;56.822;26.056;2022-08-21T11:03:17;21.40;99.90
20534;DHT22;12929;56.822;26.056;2022-08-21T11:05:52;21.30;99.90
20534;DHT22;12929;56.822;26.056;2022-08-21T11:16:33;21.70;99.90
20534;DHT22;12929;56.822;26.056;2022-08-21T11:22:21;21.50;99.90
20534;DHT22;12929;56.822;26.056;2022-08-21T11:27:49;21.40;99.90
20534;DHT22;12929;56.822;26.056;2022-08-21T11:30:18;21.40;99.90
20534;DHT22;12929;56.822;26.056;2022-08-21T11:35:34;21.50;99.90
20534;DHT22;12929;56.822;26.056;2022-08-21T11:43:47;21.60;99.90
20534;DHT22;12929;56.822;26.056;2022-08-21T11:52:15;22.20;99.90
20534;DHT22;12929;56.822;26.056;2022-08-21T11:55:24;22.40;99.90
20534;DHT22;12929;56.822;26.056;2022-08-21T12:03:17;22.60;99.90
20534;DHT22;12929;56.822;26.056;2022-08-21T12:05:56;22.60;99.90
20534;DHT22;12929;56.822;26.056;2022-08-21T12:08:56;22.50;99.90
20534;DHT22;12929;56.822;26.056;2022-08-21T12:16:37;22.50;99.90
20534;DHT22;12929;56.822;26.056;2022-08-21T12:19:28;22.50;99.90
20534;DHT22;12929;56.822;26.056;2022-08-21T12:24:35;22.70;99.90
20534;DHT22;12929;56.822;26.056;2022-08-21T12:27:26;22.80;99.90
20534;DHT22;12929;56.822;26.056;2022-08-21T12:30:05;22.70;99.90
20534;DHT22;12929;56.822;26.056;2022-08-21T12:32:59;22.60;99.90
20534;DHT22;12929;56.822;26.056;2022-08-21T12:35:38;22.60;99.90
20534;DHT22;12929;56.822;26.056;2022-08-21T12:38:22;22.50;99.90
20534;DHT22;12929;56.822;26.056;2022-08-21T12:40:58;22.40;99.90
20534;DHT22;12929;56.822;26.056;2022-08-21T12:46:03;22.30;99.90
20534;DHT22;12929;56.822;26.056;2022-08-21T12:48:39;22.30;99.90
20534;DHT22;12929;56.822;26.056;2022-08-21T12:51:15;22.30;99.90
20534;DHT22;12929;56.822;26.056;2022-08-21T12:56:17;22.30;99.90
20534;DHT22;12929;56.822;26.056;2022-08-21T12:59:02;22.40;99.90
20534;DHT22;12929;56.822;26.056;2022-08-21T13:01:36;22.40;99.90
20534;DHT22;12929;56.822;26.056;2022-08-21T13:04:15;22.30;99.90
20534;DHT22;12929;56.822;26.056;2022-08-21T13:06:49;22.20;99.90
20534;DHT22;12929;56.822;26.056;2022-08-21T13:09:23;22.30;99.90
20534;DHT22;12929;56.822;26.056;2022-08-21T13:11:53;22.30;99.90
20534;DHT22;12929;56.822;26.056;2022-08-21T13:14:28;22.40;99.90
20534;DHT22;12929;56.822;26.056;2022-08-21T13:16:58;22.70;99.90
20534;DHT22;12929;56.822;26.056;2022-08-21T13:19:26;22.80;99.90
20534;DHT22;12929;56.822;26.056;2022-08-21T13:21:57;22.80;99.90
20534;DHT22;12929;56.822;26.056;2022-08-21T13:24:25;22.70;99.90
20534;DHT22;12929;56.822;26.056;2022-08-21T13:27:28;22.70;99.90
20534;DHT22;12929;56.822;26.056;2022-08-21T13:30:03;22.90;99.90
20534;DHT22;12929;56.822;26.056;2022-08-21T13:32:35;23.10;99.90
20534;DHT22;12929;56.822;26.056;2022-08-21T13:37:41;23.40;99.90
20534;DHT22;12929;56.822;26.056;2022-08-21T13:40:16;23.20;99.90
20534;DHT22;12929;56.822;26.056;2022-08-21T13:42:46;23.10;99.90
20534;DHT22;12929;56.822;26.056;2022-08-21T13:45:29;22.90;99.90
20534;DHT22;12929;56.822;26.056;2022-08-21T13:48:00;22.80;99.90
20534;DHT22;12929;56.822;26.056;2022-08-21T13:50:35;22.90;99.90
20534;DHT22;12929;56.822;26.056;2022-08-21T13:53:07;23.20;99.90
20534;DHT22;12929;56.822;26.056;2022-08-21T13:55:43;23.30;99.90
20534;DHT22;12929;56.822;26.056;2022-08-21T13:58:11;23.10;99.90
20534;DHT22;12929;56.822;26.056;2022-08-21T14:00:49;23.10;99.90
20534;DHT22;12929;56.822;26.056;2022-08-21T14:03:32;23.10;99.90
20534;DHT22;12929;56.822;26.056;2022-08-21T14:06:01;23.00;99.90
20534;DHT22;12929;56.822;26.056;2022-08-21T14:08:33;23.00;99.90
20534;DHT22;12929;56.822;26.056;2022-08-21T14:11:04;23.00;99.90
20534;DHT22;12929;56.822;26.056;2022-08-21T14:13:47;23.00;99.90
20534;DHT22;12929;56.822;26.056;2022-08-21T14:16:23;23.20;99.90
20534;DHT22;12929;56.822;26.056;2022-08-21T14:21:35;23.90;99.90
20534;DHT22;12929;56.822;26.056;2022-08-21T14:24:10;23.70;99.90
20534;DHT22;12929;56.822;26.056;2022-08-21T14:27:01;23.90;99.90
20534;DHT22;12929;56.822;26.056;2022-08-21T14:29:42;24.00;99.90
20534;DHT22;12929;56.822;26.056;2022-08-21T14:32:15;24.10;99.90
20534;DHT22;12929;56.822;26.056;2022-08-21T14:34:52;24.20;99.90
20534;DHT22;12929;56.822;26.056;2022-08-21T14:37:22;24.30;99.90
20534;DHT22;12929;56.822;26.056;2022-08-21T14:39:50;24.10;99.90
20534;DHT22;12929;56.822;26.056;2022-08-21T14:42:18;24.10;99.90
20534;DHT22;12929;56.822;26.056;2022-08-21T14:44:48;24.10;99.90
20534;DHT22;12929;56.822;26.056;2022-08-21T14:47:15;24.00;99.90
20534;DHT22;12929;56.822;26.056;2022-08-21T14:49:43;24.00;99.90
20534;DHT22;12929;56.822;26.056;2022-08-21T14:52:11;23.90;99.90
20534;DHT22;12929;56.822;26.056;2022-08-21T14:54:39;23.80;99.90
20534;DHT22;12929;56.822;26.056;2022-08-21T14:57:09;23.70;99.90
20534;DHT22;12929;56.822;26.056;2022-08-21T14:59:38;23.50;99.90
20534;DHT22;12929;56.822;26.056;2022-08-21T15:02:07;23.40;99.90
20534;DHT22;12929;56.822;26.056;2022-08-21T15:04:35;23.30;99.90
20534;DHT22;12929;56.822;26.056;2022-08-21T15:07:03;23.30;99.90
20534;DHT22;12929;56.822;26.056;2022-08-21T15:09:31;23.10;99.90
20534;DHT22;12929;56.822;26.056;2022-08-21T15:12:00;23.10;99.90
20534;DHT22;12929;56.822;26.056;2022-08-21T15:14:32;23.00;99.90
20534;DHT22;12929;56.822;26.056;2022-08-21T15:17:00;23.00;99.90
20534;DHT22;12929;56.822;26.056;2022-08-21T15:19:31;22.90;99.90
20534;DHT22;12929;56.822;26.056;2022-08-21T15:21:59;22.90;99.90
20534;DHT22;12929;56.822;26.056;2022-08-21T15:24:27;22.80;99.90
20534;DHT22;12929;56.822;26.056;2022-08-21T15:26:55;22.80;99.90
20534;DHT22;12929;56.822;26.056;2022-08-21T15:29:23;22.70;99.90
20534;DHT22;12929;56.822;26.056;2022-08-21T15:32:24;22.60;99.90
20534;DHT22;12929;56.822;26.056;2022-08-21T15:34:54;22.50;99.90
20534;DHT22;12929;56.822;26.056;2022-08-21T15:37:23;22.40;99.90
20534;DHT22;12929;56.822;26.056;2022-08-21T15:39:51;22.40;99.90
20534;DHT22;12929;56.822;26.056;2022-08-21T15:42:21;22.30;99.90
20534;DHT22;12929;56.822;26.056;2022-08-21T15:44:49;22.30;99.90
20534;DHT22;12929;56.822;26.056;2022-08-21T15:47:21;22.30;99.90
20534;DHT22;12929;56.822;26.056;2022-08-21T15:49:49;22.30;99.90
20534;DHT22;12929;56.822;26.056;2022-08-21T15:52:19;22.30;99.90
20534;DHT22;12929;56.822;26.056;2022-08-21T15:54:48;22.30;99.90
20534;DHT22;12929;56.822;26.056;2022-08-21T15:57:20;22.20;99.90
20534;DHT22;12929;56.822;26.056;2022-08-21T15:59:59;22.30;99.90
20534;DHT22;12929;56.822;26.056;2022-08-21T16:02:39;22.20;99.90
20534;DHT22;12929;56.822;26.056;2022-08-21T16:05:09;22.30;99.90
20534;DHT22;12929;56.822;26.056;2022-08-21T16:07:39;22.20;99.90
20534;DHT22;12929;56.822;26.056;2022-08-21T16:10:08;22.20;99.90
20534;DHT22;12929;56.822;26.056;2022-08-21T16:12:40;22.10;99.90
20534;DHT22;12929;56.822;26.056;2022-08-21T16:15:11;22.10;99.90
20534;DHT22;12929;56.822;26.056;2022-08-21T16:17:47;22.10;99.90
20534;DHT22;12929;56.822;26.056;2022-08-21T16:20:19;22.10;99.90
20534;DHT22;12929;56.822;26.056;2022-08-21T16:22:48;22.10;99.90
20534;DHT22;12929;56.822;26.056;2022-08-21T16:25:16;22.10;99.90
20534;DHT22;12929;56.822;26.056;2022-08-21T16:27:48;22.00;99.90
20534;DHT22;12929;56.822;26.056;2022-08-21T16:30:24;22.00;99.90
20534;DHT22;12929;56.822;26.056;2022-08-21T16:32:59;22.00;99.90
20534;DHT22;12929;56.822;26.056;2022-08-21T16:35:28;21.90;99.90
20534;DHT22;12929;56.822;26.056;2022-08-21T16:37:56;21.90;99.90
20534;DHT22;12929;56.822;26.056;2022-08-21T16:40:24;21.90;99.90
20534;DHT22;12929;56.822;26.056;2022-08-21T16:42:53;21.90;99.90
20534;DHT22;12929;56.822;26.056;2022-08-21T16:45:22;21.90;99.90
20534;DHT22;12929;56.822;26.056;2022-08-21T16:47:50;21.90;99.90
20534;DHT22;12929;56.822;26.056;2022-08-21T16:50:23;21.90;99.90
20534;DHT22;12929;56.822;26.056;2022-08-21T16:52:52;21.90;99.90
20534;DHT22;12929;56.822;26.056;2022-08-21T16:55:20;21.90;99.90
20534;DHT22;12929;56.822;26.056;2022-08-21T16:57:48;21.90;99.90
20534;DHT22;12929;56.822;26.056;2022-08-21T17:00:16;21.90;99.90
20534;DHT22;12929;56.822;26.056;2022-08-21T17:02:49;21.80;99.90
20534;DHT22;12929;56.822;26.056;2022-08-21T17:05:17;21.80;99.90
20534;DHT22;12929;56.822;26.056;2022-08-21T17:07:45;21.80;99.90
20534;DHT22;12929;56.822;26.056;2022-08-21T17:10:16;21.80;99.90
20534;DHT22;12929;56.822;26.056;2022-08-21T17:12:47;21.80;99.90
20534;DHT22;12929;56.822;26.056;2022-08-21T17:15:21;21.80;99.90
20534;DHT22;12929;56.822;26.056;2022-08-21T17:17:50;21.70;99.90
20534;DHT22;12929;56.822;26.056;2022-08-21T17:20:19;21.70;99.90
20534;DHT22;12929;56.822;26.056;2022-08-21T17:22:47;21.70;99.90
20534;DHT22;12929;56.822;26.056;2022-08-21T17:25:15;21.60;99.90
20534;DHT22;12929;56.822;26.056;2022-08-21T17:27:48;21.60;99.90